LFHP/LPY METAR and TAF weather

Enter ICAO airport designator
Station Type Date Time Source
LFHP METAR 2019/12/09 18:00 UTC NOAA

LFHP 091800Z AUTO 31015KT 9999 -DZ BKN018 BKN023 BKN028 03/01 Q1018


Station Type Date Time Source
LFHP Decoded METAR 2019/12/09 18:00 UTC NOAA

Le Puy, France (LFHP) 45-05N 003-46E 833M
Dec 09, 2019 - 01:00 PM EST / 2019.12.09 1800 UTC
Wind: from the NW (310 degrees) at 17 MPH (15 KT):0
Visibility: greater than 7 mile(s):0
Sky conditions: mostly cloudy
Weather: light drizzle
Temperature: 37 F (3 C)
Dew Point: 33 F (1 C)
Relative Humidity: 86%
Pressure (altimeter): 30.06 in. Hg (1018 hPa)
ob: LFHP 091800Z AUTO 31015KT 9999 -DZ BKN018 BKN023 BKN028 03/01 Q1018
cycle: 18

Station Type Date Time Source
LFHP TAF UTC NOAA

Error!

Example: see airport list